METAR Data
IDs: Format: Raw Decoded Include TAF

Data at: 2207 UTC 24 Mar 2019

KBWD 242155Z AUTO 20008G15KT 10SM CLR 28/12 A2996 RMK AO1
KBWD 242135Z AUTO 21011G17KT 10SM FEW060 28/11 A2997 RMK AO1
KBWD 242115Z AUTO 23012G16KT 10SM FEW060 28/13 A2998 RMK AO1
KBWD 242055Z AUTO 20011G14KT 10SM CLR 28/13 A2999 RMK AO1
KBWD 242035Z AUTO 21010KT 10SM CLR 27/13 A2999 RMK AO1
KBWD 242015Z AUTO 22009KT 190V270 10SM CLR 27/14 A3000 RMK AO1
KBWD 241955Z AUTO 21010KT 10SM CLR 27/14 A3001 RMK AO1
KBWD 241935Z AUTO 19015G19KT 10SM CLR 27/14 A3001 RMK AO1
KBWD 241915Z AUTO 21011G17KT 10SM FEW041 26/15 A3002 RMK AO1
KBWD 241855Z AUTO 22012G17KT 10SM FEW041 26/14 A3004 RMK AO1
KBWD 241835Z AUTO 21013KT 10SM SCT039 25/15 A3004 RMK AO1
KBWD 241815Z AUTO 21014G18KT 10SM SCT037 25/15 A3005 RMK AO1
KBWD 241755Z AUTO 22011G17KT 10SM SCT035 24/15 A3006 RMK AO1
KBWD 241735Z AUTO 20013G17KT 10SM OVC032 24/15 A3006 RMK AO1
KBWD 241715Z AUTO 20011G19KT 10SM BKN028 23/15 A3007 RMK AO1
KBWD 241655Z AUTO 21013G18KT 10SM BKN028 23/15 A3007 RMK AO1
KBWD 241635Z AUTO 20014G19KT 10SM BKN026 23/15 A3008 RMK AO1
KBWD 241615Z AUTO 20013G18KT 10SM BKN030 22/15 A3008 RMK AO1
KBWD 241555Z AUTO 20012KT 10SM OVC032 21/16 A3008 RMK AO1
KBWD 241535Z AUTO 21013G20KT 10SM OVC032 21/16 A3008 RMK AO1
KBWD 241515Z AUTO 19012KT 10SM OVC032 20/17 A3008 RMK AO1
KBWD 241455Z AUTO 19008G16KT 10SM BKN032 19/17 A3008 RMK AO1
KBWD 241435Z AUTO 18008KT 10SM SCT030 18/17 A3009 RMK AO1
KBWD 241415Z AUTO 18007KT 10SM FEW028 17/17 A3008 RMK AO1
KBWD 241355Z AUTO 17006KT 10SM CLR 16/16 A3008 RMK AO1
KBWD 241335Z AUTO 18003KT 9SM CLR 15/15 A3007 RMK AO1
KBWD 241315Z AUTO 16003KT M1/4SM VV000 13/13 A3006 RMK AO1
KBWD 241255Z AUTO 00000KT 1SM CLR 14/14 A3006 RMK AO1
KBWD 241235Z AUTO 00000KT 3SM CLR 14/14 A3006 RMK AO1
KBWD 241215Z AUTO 16003KT 9SM FEW028 14/14 A3005 RMK AO1
KBWD 241155Z AUTO 16003KT 10SM SCT028 14/14 A3005 RMK AO1
KBWD 241135Z AUTO 17004KT 10SM CLR 15/15 A3004 RMK AO1
KBWD 241115Z AUTO 16004KT 10SM FEW026 SCT034 15/15 A3004 RMK AO1
KBWD 241055Z AUTO 00000KT 10SM OVC024 15/15 A3004 RMK AO1
KBWD 241035Z AUTO 17004KT 10SM BKN024 BKN029 BKN040 15/15 A3003 RMK AO1
KBWD 241015Z AUTO 15006KT 10SM SCT025 BKN038 16/15 A3002 RMK AO1
KBWD 240955Z AUTO 15006KT 10SM BKN025 BKN031 OVC040 16/15 A3002 RMK AO1
KBWD 240935Z AUTO 15006KT 10SM BKN027 BKN033 17/15 A3002 RMK AO1
KBWD 240915Z AUTO 15006KT 10SM OVC027 18/15 A3002 RMK AO1
KBWD 240855Z AUTO 16006KT 10SM OVC029 18/15 A3002 RMK AO1
KBWD 240835Z AUTO 16007KT 10SM OVC029 18/15 A3003 RMK AO1
KBWD 240815Z AUTO 16006KT 10SM OVC027 18/15 A3003 RMK AO1
KBWD 240755Z AUTO 17007KT 10SM OVC027 18/16 A3003 RMK AO1
KBWD 240735Z AUTO 17006KT 10SM OVC025 18/16 A3003 RMK AO1
KBWD 240715Z AUTO 16007KT 10SM OVC025 19/16 A3004 RMK AO1
KBWD 240655Z AUTO 18008KT 10SM OVC025 19/16 A3004 RMK AO1
KBWD 240635Z AUTO 17006KT 10SM OVC023 19/16 A3004 RMK AO1
KBWD 240615Z AUTO 18008KT 10SM OVC021 19/16 A3004 RMK AO1
KBWD 240555Z AUTO 18011G15KT 10SM OVC021 19/16 A3004 RMK AO1
KBWD 240535Z AUTO 18011G14KT 10SM OVC019 19/16 A3004 RMK AO1
KBWD 240515Z AUTO 17010KT 10SM OVC019 18/16 A3004 RMK AO1
KBWD 240455Z AUTO 18010G15KT 10SM OVC021 18/16 A3003 RMK AO1
KBWD 240435Z AUTO 16009G14KT 10SM OVC021 18/16 A3003 RMK AO1
KBWD 240415Z AUTO 16010KT 10SM BKN021 18/15 A3003 RMK AO1
KBWD 240355Z AUTO 16008KT 10SM SCT023 SCT027 BKN037 18/15 A3002 RMK AO1
KBWD 240335Z AUTO 16007KT 10SM FEW035 SCT042 18/15 A3002 RMK AO1
KBWD 240315Z AUTO 16011G16KT 10SM FEW027 SCT035 SCT044 18/15 A3001 RMK AO1
KBWD 240255Z AUTO 16010KT 10SM SCT027 BKN037 BKN044 19/15 A3000 RMK AO1
KBWD 240235Z AUTO 16010KT 10SM FEW039 FEW046 19/15 A2999 RMK AO1
KBWD 240215Z AUTO 16010KT 10SM FEW036 FEW045 19/15 A2998 RMK AO1
KBWD 240155Z AUTO 16008G15KT 10SM FEW037 SCT045 19/15 A2998 RMK AO1
KBWD 240135Z AUTO 16011KT 10SM FEW034 SCT044 20/15 A2997 RMK AO1
KBWD 240115Z AUTO 15012G17KT 10SM FEW034 20/15 A2997 RMK AO1
KBWD 240055Z AUTO 15012G17KT 10SM CLR 20/15 A2997 RMK AO1
KBWD 240035Z AUTO 15012G16KT 10SM CLR 20/15 A2997 RMK AO1
KBWD 240015Z AUTO 15015G21KT 10SM CLR 21/15 A2997 RMK AO1
KBWD 232355Z AUTO 15014G20KT 10SM CLR 22/15 A2997 RMK AO1
KBWD 232335Z AUTO 16014G21KT 10SM FEW090 22/15 A2997 RMK AO1
KBWD 232315Z AUTO 16012G21KT 10SM FEW065 SCT090 22/15 A2997 RMK AO1
KBWD 232255Z AUTO 16013G19KT 10SM FEW065 FEW090 23/15 A2996 RMK AO1
KBWD 232235Z AUTO 15013G18KT 10SM FEW042 FEW050 SCT055 24/14 A2995 RMK AO1
KBWD 232215Z AUTO 16010G18KT 10SM FEW042 SCT060 SCT080 24/14 A2995 RMK AO1
KBWD 232155Z AUTO 18014G19KT 130V190 10SM FEW043 FEW048 SCT055 24/15 A2995 RMK AO1
KBWD 232135Z AUTO 15014G18KT 10SM FEW043 SCT048 SCT055 25/15 A2995 RMK AO1
KBWD 232115Z AUTO 17012G19KT 10SM FEW043 24/14 A2996 RMK AO1
KBWD 232055Z AUTO 15016G21KT 10SM BKN042 24/15 A2996 RMK AO1
KBWD 232035Z AUTO 18014G17KT 10SM BKN041 BKN048 24/14 A2997 RMK AO1
KBWD 232015Z AUTO 20010G17KT 10SM FEW036 BKN042 BKN048 24/14 A2998 RMK AO1
KBWD 231955Z AUTO 18012G17KT 10SM SCT034 BKN045 23/14 A2999 RMK AO1
KBWD 231935Z AUTO 18011G17KT 10SM BKN033 BKN042 23/15 A3000 RMK AO1
KBWD 231915Z AUTO 17012G17KT 10SM FEW032 BKN040 OVC046 22/15 A3001 RMK AO1
KBWD 231855Z AUTO 15013G16KT 10SM FEW025 SCT033 OVC044 22/16 A3002 RMK AO1
KBWD 231835Z AUTO 15012G15KT 10SM SCT023 BKN029 OVC048 21/15 A3002 RMK AO1
KBWD 231815Z AUTO 16011G15KT 10SM BKN021 OVC048 20/15 A3004 RMK AO1
KBWD 231755Z AUTO 16012G16KT 10SM OVC019 20/15 A3005 RMK AO1
KBWD 231735Z AUTO 16013G19KT 10SM BKN019 20/15 A3005 RMK AO1
KBWD 231715Z AUTO 15011KT 10SM SCT019 BKN050 20/15 A3006 RMK AO1
KBWD 231655Z AUTO 15010G15KT 10SM BKN019 BKN041 OVC048 18/14 A3007 RMK AO1
KBWD 231635Z AUTO 15011KT 10SM FEW019 SCT023 BKN041 18/14 A3007 RMK AO1
KBWD 231615Z AUTO 15010KT 10SM BKN022 BKN028 OVC041 18/13 A3008 RMK AO1
KBWD 231555Z AUTO 15007KT 10SM BKN024 OVC029 18/13 A3008 RMK AO1
KBWD 231535Z AUTO 15009KT 10SM SCT024 OVC029 18/13 A3007 RMK AO1
KBWD 231515Z AUTO 16008KT 10SM OVC029 17/13 A3006 RMK AO1
KBWD 231455Z AUTO 15009KT 10SM OVC029 17/13 A3006 RMK AO1
KBWD 231435Z AUTO 16011KT 10SM OVC029 17/12 A3005 RMK AO1
KBWD 231415Z AUTO 15008KT 10SM BKN031 17/12 A3004 RMK AO1
KBWD 231355Z AUTO 17006KT 10SM SCT041 17/12 A3003 RMK AO1
KBWD 231335Z AUTO 16008KT 10SM FEW025 OVC041 16/11 A3003 RMK AO1
KBWD 231315Z AUTO 16007KT 10SM SCT027 BKN041 15/11 A3003 RMK AO1
KBWD 231255Z AUTO 15009G14KT 10SM SCT032 OVC038 15/10 A3002 RMK AO1
KBWD 231235Z AUTO 15009G14KT 10SM OVC030 16/10 A3002 RMK AO1
KBWD 231215Z AUTO 15008KT 10SM OVC032 16/10 A3002 RMK AO1
KBWD 231155Z AUTO 15007KT 10SM OVC028 16/10 A3002 RMK AO1
KBWD 231135Z AUTO 16006KT 10SM OVC026 16/09 A3002 RMK AO1
KBWD 231115Z AUTO 16006KT 10SM OVC028 15/09 A3002 RMK AO1
KBWD 231055Z AUTO 17006KT 10SM OVC028 15/09 A3002 RMK AO1
KBWD 231035Z AUTO 16006KT 10SM OVC028 15/08 A3001 RMK AO1
KBWD 231015Z AUTO 17004KT 10SM OVC028 15/08 A3000 RMK AO1